Keene, Kentucky
Current Conditions -  °F | °C
As of 8:54 PM on Saturday 22 Nov 2014 (Local Time) from KLEX Reporting Station
Clear Clear  
Wind Chill: 51°   Ceiling: Unl
Heat Index: 51°   Visibility: 10mi
Dew Point: 31°   Wind: 10mph
Humidity: 46%   Direction: 170°S
Pressure: 30.11"   Gusts: NA
Location:  37.94°N, 84.64°W
Report Text: KLEX 230154Z 17009KT 10SM CLR 11/M01 A3011 RMK AO2 SLP196 T01061006
Loading
Personal Weather Stations






























Interactive Weather Map New forecast layout! Learn more

10-Day Weather Forecast

Advertisements
Track Severe Weather on mobile